No particular awareness of the weather is required.    There are no Weather-warnings


Meteo18 Weather Cam more information Meteo18 Weather Cam


Thunder radar more information blitzortung!


Rain radar more information rain snow radar


Visit our other weather sites:

Template documentation
and downloads

And another site



Weather Underground History page Text

Daily Summary for November 8, 2017 Units:  Metric    English   Both
« Previous Day
Next Day »
Daily Weekly Monthly Yearly Custom
  High: Low: Average:
Temperature: -17.8 °C -18.9 °C -15.8 °C
Dew Point: -17.8 °C -19.3 °C -16.5 °C
Humidity: Humidity % 81 % 91 %
Wind Speed: 0 km/h 0 km/h 1 km/h
Wind Gust: 0 km/h - -
Wind:- - West
Pressure: 0 hPa 34476.3 hPa -
Precipitation: 12.7 mm    
Historical Graphs
 
 
Tabular Data for November 8, 2017
Time Temperature Dew Point Pressure Wind Wind Speed Wind Gust Humidity Rainfall Rate (Hourly)
-17.8 °C -17.8 °C 0 hPa Calm     Humidity % 0 mm
00:02 -18.1 °C -18.6 °C 34496.6 hPa West 2.6 km/h 2.6 km/h 93 % 0 mm
00:12 -18 °C -18.6 °C 34496.6 hPa Calm   2.6 km/h 93 % 0 mm
00:17 -17.9 °C -18.3 °C 34496.6 hPa Calm   2.6 km/h 94 % 0 mm
00:22 -17.9 °C -18.5 °C 34496.6 hPa Calm   2.6 km/h 93 % 0 mm
00:32 -17.9 °C -18.4 °C 34486.4 hPa Calm     94 % 0 mm
00:42 -18.2 °C -18.6 °C 34496.6 hPa Calm   5.1 km/h 94 % 0 mm
00:47 -18.1 °C -18.6 °C 34496.6 hPa WNW 2.6 km/h 5.1 km/h 94 % 0 mm
00:52 -18.1 °C -18.6 °C 34486.4 hPa Calm   5.1 km/h 94 % 0 mm
00:57 -18.2 °C -18.6 °C 34486.4 hPa Calm   7.7 km/h 94 % 0 mm
01:02 -18.2 °C -18.7 °C 34496.6 hPa Calm   7.7 km/h 93 % 0 mm
01:12 -18.6 °C -19.1 °C 34496.6 hPa Calm   2.6 km/h 93 % 0 mm
01:17 -18.7 °C -19.3 °C 34496.6 hPa Calm   5.1 km/h 93 % 0 mm
01:22 -18.6 °C -18.9 °C 34486.4 hPa Calm   5.1 km/h 95 % 0 mm
01:27 -18.4 °C -18.8 °C 34486.4 hPa Calm   5.1 km/h 95 % 0 mm
01:32 -18.4 °C -18.9 °C 34496.6 hPa Calm   2.6 km/h 94 % 0 mm
01:37 -18.6 °C -19 °C 34496.6 hPa Calm   2.6 km/h 94 % 0 mm
01:42 -18.6 °C -19.1 °C 34486.4 hPa Calm   2.6 km/h 94 % 0 mm
01:47 -18.7 °C -19.1 °C 34486.4 hPa Calm     94 % 0 mm
01:52 -18.7 °C -19.1 °C 34486.4 hPa Calm     94 % 0 mm
01:57 -18.7 °C -19.2 °C 34486.4 hPa Calm     94 % 0 mm
02:02 -18.8 °C -19.3 °C 34486.4 hPa Calm     94 % 0 mm
02:07 -18.8 °C -19.2 °C 34476.3 hPa Calm     95 % 0 mm
02:12 -18.8 °C -19.2 °C 34486.4 hPa Calm     95 % 0 mm
02:17 -18.7 °C -19.1 °C 34486.4 hPa Calm     95 % 0 mm
02:22 -18.8 °C -19.2 °C 34486.4 hPa WNW 2.6 km/h 2.6 km/h 94 % 0 mm
02:32 -18.8 °C -19.2 °C 34486.4 hPa Calm   5.1 km/h 95 % 0 mm
02:37 -18.8 °C -19.3 °C 34486.4 hPa Calm   2.6 km/h 94 % 0 mm
02:42 -18.7 °C -19.1 °C 34486.4 hPa Calm   2.6 km/h 95 % 0 mm
02:47 -18.7 °C -19.1 °C 34486.4 hPa Calm   2.6 km/h 95 % 0 mm
02:52 -18.8 °C -19.2 °C 34486.4 hPa Calm   2.6 km/h 95 % 0 mm
02:57 -18.8 °C -19.3 °C 34486.4 hPa WNW 2.6 km/h 2.6 km/h 94 % 0 mm
03:02 -18.9 °C -19.3 °C 34486.4 hPa Calm   2.6 km/h 95 % 0 mm
03:07 -18.9 °C -19.3 °C 34486.4 hPa Calm   2.6 km/h 95 % 0 mm
03:12 -18.9 °C -19.3 °C 34486.4 hPa Calm   2.6 km/h 95 % 0 mm
03:17 -18.8 °C -19.2 °C 34476.3 hPa Calm   2.6 km/h 95 % 0 mm
03:22 -18.8 °C -19.2 °C 34476.3 hPa Calm   2.6 km/h 95 % 0 mm
03:27 -18.8 °C -19.2 °C 34476.3 hPa Calm   2.6 km/h 95 % 0 mm
03:37 -18.8 °C -19.2 °C 34476.3 hPa Calm   2.6 km/h 95 % 0 mm
03:42 -18.8 °C -19.2 °C 34476.3 hPa Calm   2.6 km/h 95 % 0 mm
03:47 -18.8 °C -19.2 °C 34476.3 hPa Calm     95 % 0 mm
03:57 -18.9 °C -19.3 °C 34476.3 hPa Calm     95 % 0 mm
04:02 -18.9 °C -19.3 °C 34476.3 hPa Calm     95 % 0 mm
08:57 -17.7 °C -18.1 °C 34510.1 hPa Calm     95 % 0 mm
09:02 -17.7 °C -18.1 °C 34520.3 hPa Calm     95 % 0 mm
09:07 -17.6 °C -18 °C 34520.3 hPa Calm     95 % 0 mm
09:12 -17.6 °C -17.9 °C 34510.1 hPa Calm     95 % 0 mm
09:17 -17.6 °C -17.9 °C 34510.1 hPa Calm     95 % 0 mm
09:22 -17.5 °C -17.9 °C 34520.3 hPa Calm     95 % 0 mm
09:32 -17.3 °C -17.7 °C 34520.3 hPa Calm     96 % 0 mm
09:37 -17.3 °C -17.7 °C 34533.8 hPa Calm     95 % 0 mm
09:42 -17.3 °C -17.7 °C 34533.8 hPa Calm     95 % 0 mm
09:52 -17.2 °C -17.6 °C 34533.8 hPa Calm     95 % 0 mm
10:02 -17 °C -17.4 °C 34533.8 hPa Calm     95 % 0 mm
10:12 -16.9 °C -17.3 °C 34533.8 hPa Calm     95 % 0 mm
10:17 -16.8 °C -17.2 °C 34533.8 hPa Calm     95 % 0 mm
10:22 -16.8 °C -17.2 °C 34533.8 hPa Calm     95 % 0 mm
10:32 -16.7 °C -17.1 °C 34533.8 hPa Calm     95 % 0 mm
10:37 -16.6 °C -17.1 °C 34533.8 hPa Calm     94 % 0 mm
10:42 -16.6 °C -17.1 °C 34533.8 hPa Calm     94 % 0 mm
10:52 -16.6 °C -17.1 °C 34544 hPa Calm     94 % 0 mm
11:02 -16.5 °C -17 °C 34544 hPa Calm     94 % 0 mm
11:12 -16.3 °C -16.8 °C 34544 hPa Calm     94 % 7.62 mm
11:17 -16.3 °C -16.9 °C 34544 hPa Calm     93 % 7.62 mm
11:22 -16.3 °C -16.9 °C 34544 hPa Calm     93 % 7.62 mm
11:32 -16.2 °C -16.7 °C 34544 hPa Calm     93 % 7.62 mm
11:42 -15.8 °C -16.3 °C 34544 hPa Calm     94 % 7.62 mm
11:47 -15.9 °C -16.4 °C 34554.1 hPa Calm     93 % 7.62 mm
11:52 -15.9 °C -16.4 °C 34544 hPa Calm     93 % 7.62 mm
11:57 -15.9 °C -16.4 °C 34544 hPa Calm     93 % 7.62 mm
12:02 -15.8 °C -16.3 °C 34544 hPa Calm     93 % 7.62 mm
12:12 -15.7 °C -16.2 °C 34544 hPa Calm     93 % 0 mm
12:17 -15.6 °C -16.3 °C 34544 hPa Calm     92 % 0 mm
12:22 -15.6 °C -16.3 °C 34544 hPa Calm     92 % 0 mm
12:32 -15.5 °C -16.2 °C 34544 hPa Calm     92 % 0 mm
12:42 -15.4 °C -16.1 °C 34544 hPa Calm   5.1 km/h 92 % 0 mm
12:47 -15.4 °C -16.1 °C 34544 hPa Calm   5.1 km/h 92 % 0 mm
12:57 -15.2 °C -15.8 °C 34544 hPa Calm   5.1 km/h 92 % 0 mm
13:02 -15.2 °C -15.9 °C 34554.1 hPa ENE 2.6 km/h   91 % 0 mm
13:07 -15.2 °C -15.9 °C 34554.1 hPa Calm   2.6 km/h 91 % 0 mm
13:12 -15.2 °C -15.9 °C 34554.1 hPa Calm   5.1 km/h 91 % 0 mm
13:17 -15.2 °C -15.9 °C 34544 hPa Calm   5.1 km/h 91 % 0 mm
13:22 -15.1 °C -15.8 °C 34544 hPa Calm   5.1 km/h 92 % 0 mm
13:27 -14.9 °C -15.7 °C 34544 hPa Calm     91 % 0 mm
13:32 -14.9 °C -15.7 °C 34544 hPa Calm     91 % 0 mm
13:37 -14.8 °C -15.4 °C 34544 hPa Calm   5.1 km/h 92 % 0 mm
13:42 -14.7 °C -15.6 °C 34544 hPa East 2.6 km/h 5.1 km/h 89 % 0 mm
13:47 -14.8 °C -15.7 °C 34544 hPa Calm   5.1 km/h 89 % 0 mm
13:57 -14.7 °C -15.6 °C 34544 hPa Calm   5.1 km/h 90 % 0 mm
14:07 -14.3 °C -15.3 °C 34544 hPa Calm   2.6 km/h 88 % 0 mm
14:12 -14.3 °C -15.4 °C 34544 hPa Calm   5.1 km/h 87 % 0 mm
14:17 -14.2 °C -15.4 °C 34544 hPa Calm   5.1 km/h 86 % 0 mm
14:27 -14.2 °C -15.4 °C 34544 hPa SSW 5.1 km/h 7.7 km/h 85 % 0 mm
14:32 -14.1 °C -15.3 °C 34544 hPa Calm   7.7 km/h 86 % 0 mm
14:37 -14.1 °C -15.5 °C 34544 hPa Calm   7.7 km/h 84 % 0 mm
14:42 -14.2 °C -15.6 °C 34544 hPa Calm   5.1 km/h 84 % 0 mm
14:47 -14.2 °C -15.4 °C 34544 hPa Calm   5.1 km/h 85 % 0 mm
14:52 -14.2 °C -15.6 °C 34554.1 hPa SSW 2.6 km/h 5.1 km/h 84 % 0 mm
14:57 -14.1 °C -15.5 °C 34554.1 hPa Calm   5.1 km/h 84 % 0 mm
15:02 -14 °C -15.3 °C 34554.1 hPa Calm   5.1 km/h 85 % 0 mm
15:07 -13.8 °C -15.3 °C 34554.1 hPa SSW 2.6 km/h 5.1 km/h 83 % 0 mm
15:12 -13.8 °C -15.3 °C 34554.1 hPa Calm   5.1 km/h 83 % 0 mm
15:17 -13.8 °C -15.2 °C 34554.1 hPa Calm   5.1 km/h 84 % 0 mm
15:22 -13.8 °C -15.3 °C 34554.1 hPa Calm   7.7 km/h 83 % 0 mm
15:27 -13.7 °C -15.3 °C 34554.1 hPa Calm   7.7 km/h 82 % 0 mm
15:32 -13.7 °C -15.4 °C 34554.1 hPa SW 2.6 km/h 5.1 km/h 81 % 0 mm
15:37 -13.8 °C -15.5 °C 34554.1 hPa Calm   5.1 km/h 81 % 0 mm
15:42 -13.9 °C -15.5 °C 34554.1 hPa Calm   5.1 km/h 82 % 0 mm
15:47 -13.9 °C -15.6 °C 34554.1 hPa Calm   5.1 km/h 82 % 0 mm
15:57 -14 °C -15.5 °C 34554.1 hPa SSE 2.6 km/h 5.1 km/h 83 % 0 mm
16:02 -14.1 °C -15.6 °C 34567.7 hPa Calm   5.1 km/h 83 % 0 mm
16:07 -14.1 °C -15.6 °C 34567.7 hPa Calm   5.1 km/h 83 % 0 mm
16:12 -14.1 °C -15.5 °C 34567.7 hPa SSW 2.6 km/h 7.7 km/h 84 % 0 mm
16:17 -14.2 °C -15.6 °C 34567.7 hPa SW 10.3 km/h 10.3 km/h 84 % 0 mm
16:22 -14.2 °C -15.5 °C 34567.7 hPa SW 5.1 km/h 10.3 km/h 85 % 0 mm
16:27 -14.3 °C -15.6 °C 34567.7 hPa SW 7.7 km/h 10.3 km/h 85 % 0 mm
16:32 -14.3 °C -15.5 °C 34577.8 hPa Calm   10.3 km/h 86 % 0 mm
16:37 -14.3 °C -15.5 °C 34577.8 hPa Calm   7.7 km/h 86 % 0 mm
16:42 -14.3 °C -15.5 °C 34577.8 hPa Calm   7.7 km/h 86 % 0 mm
16:47 -14.3 °C -15.6 °C 34577.8 hPa SW 2.6 km/h 7.7 km/h 86 % 0 mm
16:52 -14.4 °C -15.6 °C 34577.8 hPa SW 5.1 km/h 7.7 km/h 86 % 0 mm
16:57 -14.4 °C -15.6 °C 34577.8 hPa WSW 7.7 km/h 7.7 km/h 86 % 0 mm
17:07 -14.4 °C -15.5 °C 34591.4 hPa Calm   7.7 km/h 87 % 0 mm
17:12 -14.4 °C -15.6 °C 34591.4 hPa Calm   7.7 km/h 87 % 0 mm
17:17 -14.4 °C -15.6 °C 34591.4 hPa Calm   7.7 km/h 87 % 0 mm
17:22 -14.5 °C -15.6 °C 34591.4 hPa Calm   5.1 km/h 87 % 0 mm
17:32 -14.5 °C -15.5 °C 34591.4 hPa Calm   5.1 km/h 88 % 0 mm
17:37 -14.5 °C -15.5 °C 34591.4 hPa SW 2.6 km/h 2.6 km/h 88 % 0 mm
17:42 -14.5 °C -15.5 °C 34591.4 hPa Calm   2.6 km/h 88 % 0 mm
17:47 -14.5 °C -15.4 °C 34591.4 hPa Calm   2.6 km/h 89 % 0 mm
17:52 -14.6 °C -15.5 °C 34591.4 hPa SW 2.6 km/h 5.1 km/h 89 % 0 mm
17:57 -14.6 °C -15.5 °C 34591.4 hPa Calm   5.1 km/h 89 % 0 mm
18:02 -14.6 °C -15.5 °C 34591.4 hPa SW 5.1 km/h 5.1 km/h 89 % 0 mm
18:12 -14.6 °C -15.6 °C 34591.4 hPa WSW 2.6 km/h 5.1 km/h 89 % 0 mm
18:17 -14.6 °C -15.4 °C 34591.4 hPa West 2.6 km/h 5.1 km/h 90 % 0 mm
18:22 -14.6 °C -15.4 °C 34591.4 hPa Calm   5.1 km/h 90 % 0 mm
18:32 -14.7 °C -15.5 °C 34591.4 hPa West 2.6 km/h 2.6 km/h 90 % 0 mm
18:42 -14.7 °C -15.4 °C 34591.4 hPa Calm   5.1 km/h 91 % 0 mm
18:47 -14.7 °C -15.4 °C 34601.5 hPa Calm   5.1 km/h 91 % 0 mm
18:52 -14.7 °C -15.5 °C 34601.5 hPa Calm   2.6 km/h 91 % 0 mm
18:57 -14.8 °C -15.6 °C 34601.5 hPa Calm   2.6 km/h 91 % 0 mm
19:02 -14.8 °C -15.6 °C 34601.5 hPa Calm     91 % 0 mm
19:07 -14.8 °C -15.4 °C 34611.7 hPa Calm     92 % 0 mm
19:12 -14.8 °C -15.5 °C 34611.7 hPa Calm     92 % 0 mm
19:17 -14.8 °C -15.5 °C 34611.7 hPa Calm     92 % 0 mm
19:22 -14.8 °C -15.5 °C 34611.7 hPa Calm     92 % 0 mm
19:27 -14.8 °C -15.5 °C 34611.7 hPa Calm     92 % 0 mm
19:32 -14.8 °C -15.5 °C 34611.7 hPa Calm     92 % 0 mm
19:37 -14.8 °C -15.4 °C 34611.7 hPa WNW 2.6 km/h 7.7 km/h 92 % 0 mm
19:42 -14.8 °C -15.4 °C 34611.7 hPa WNW 5.1 km/h 7.7 km/h 92 % 0 mm
19:47 -14.7 °C -15.3 °C 34611.7 hPa NW 10.3 km/h 10.3 km/h 92 % 0 mm
19:52 -14.7 °C -15.3 °C 34611.7 hPa WNW 2.6 km/h 12.9 km/h 92 % 0 mm
19:57 -14.6 °C -15.3 °C 34611.7 hPa NW 2.6 km/h 12.9 km/h 92 % 0 mm
20:02 -14.6 °C -15.3 °C 34611.7 hPa West 2.6 km/h 12.9 km/h 92 % 0 mm
20:07 -14.6 °C -15.3 °C 34611.7 hPa WNW 2.6 km/h 10.3 km/h 91 % 0 mm
20:12 -14.6 °C -15.3 °C 34611.7 hPa NW 5.1 km/h 10.3 km/h 91 % 0 mm
20:22 -14.6 °C -15.4 °C 34625.2 hPa WNW 12.9 km/h 12.9 km/h 91 % 0 mm
20:27 -14.6 °C -15.4 °C 34625.2 hPa WNW 7.7 km/h 15.6 km/h 91 % 0 mm
20:32 -14.6 °C -15.4 °C 34625.2 hPa WNW 7.7 km/h 15.6 km/h 91 % 0 mm
20:37 -14.6 °C -15.4 °C 34625.2 hPa Calm   15.6 km/h 91 % 0 mm
20:42 -14.7 °C -15.4 °C 34625.2 hPa NW 5.1 km/h 10.3 km/h 91 % 0 mm
20:47 -14.7 °C -15.4 °C 34625.2 hPa NW 5.1 km/h 10.3 km/h 91 % 0 mm
20:52 -14.7 °C -15.4 °C 34625.2 hPa Calm   10.3 km/h 91 % 0 mm
20:57 -14.7 °C -15.4 °C 34625.2 hPa Calm   10.3 km/h 91 % 0 mm
21:02 -14.7 °C -15.4 °C 34625.2 hPa Calm   10.3 km/h 91 % 0 mm
21:07 -14.7 °C -15.4 °C 34635.4 hPa Calm   5.1 km/h 91 % 0 mm
21:12 -14.7 °C -15.4 °C 34625.2 hPa Calm   2.6 km/h 91 % 0 mm
21:17 -14.7 °C -15.4 °C 34625.2 hPa North 2.6 km/h   91 % 0 mm
21:27 -14.7 °C -15.3 °C 34625.2 hPa Calm   2.6 km/h 92 % 0 mm
21:37 -14.7 °C -15.3 °C 34635.4 hPa NNW 2.6 km/h 7.7 km/h 92 % 0 mm
21:42 -14.7 °C -15.3 °C 34635.4 hPa NW 5.1 km/h 7.7 km/h 92 % 0 mm
21:52 -14.7 °C -15.3 °C 34635.4 hPa NNW 2.6 km/h 7.7 km/h 93 % 0 mm
21:57 -14.7 °C -15.3 °C 34635.4 hPa NNW 2.6 km/h 7.7 km/h 93 % 0 mm
22:02 -14.7 °C -15.3 °C 34635.4 hPa Calm   7.7 km/h 93 % 0 mm
22:07 -14.8 °C -15.3 °C 34635.4 hPa Calm   7.7 km/h 93 % 0 mm
22:12 -14.8 °C -15.3 °C 34635.4 hPa Calm   5.1 km/h 93 % 0 mm
22:17 -14.8 °C -15.3 °C 34635.4 hPa Calm   2.6 km/h 93 % 7.62 mm
22:22 -14.8 °C -15.3 °C 34635.4 hPa Calm   2.6 km/h 94 % 7.62 mm
22:32 -14.8 °C -15.3 °C 34635.4 hPa Calm   2.6 km/h 94 % 7.62 mm
22:37 -14.8 °C -15.3 °C 34635.4 hPa Calm   2.6 km/h 94 % 7.62 mm
22:42 -14.8 °C -15.3 °C 34635.4 hPa Calm     94 % 7.62 mm
22:47 -14.8 °C -15.3 °C 34635.4 hPa Calm     94 % 7.62 mm
22:52 -14.8 °C -15.3 °C 34635.4 hPa Calm     94 % 7.62 mm
22:57 -14.7 °C -15.2 °C 34635.4 hPa Calm     94 % 7.62 mm
23:02 -14.7 °C -15.2 °C 34635.4 hPa Calm   2.6 km/h 94 % 7.62 mm
23:07 -14.7 °C -15.2 °C 34635.4 hPa Calm   2.6 km/h 94 % 7.62 mm
23:12 -14.7 °C -15.2 °C 34635.4 hPa Calm   2.6 km/h 94 % 7.62 mm
23:17 -14.7 °C -15.2 °C 34635.4 hPa Calm     94 % 0 mm
23:22 -14.7 °C -15.2 °C 34635.4 hPa Calm     94 % 0 mm
23:32 -14.7 °C -15.2 °C 34635.4 hPa Calm   2.6 km/h 94 % 0 mm
23:37 -14.7 °C -15.2 °C 34635.4 hPa Calm   2.6 km/h 94 % 0 mm
23:47 -14.8 °C -15.3 °C 34645.6 hPa Calm     94 % 0 mm
23:52 -14.8 °C -15.3 °C 34635.4 hPa Calm     94 % 0 mm
23:57 -14.8 °C -15.3 °C 34635.4 hPa Calm     94 % 0 mm
Meteo18
Compliments of Weather Underground - 4 mb

Script developed by  Jim McMurry - jmcmurry@mwt.net Adapted for the template by  Wim van der Kuil - Leuven-Template.eu

You find our weather info also at:

European Weather Network

Weather Underground

Equipment we use:

Weather-station
Davis Vue

Weather-program
Meteobridge

Weather-server
Raspberry PI 2 B+

Provider
1 and 1

Davis Vue

Meteobridge

Raspberry PI 2 B+

1 and 1